Time;durP1;ratioP1;P1;durP2;ratioP2;P2;SDS_P1;SDS_P2;PMS_P1;PMS_P2;Temp;Humidity;BMP_temperature;BMP_pressure;BME280_temperature;BME280_humidity;BME280_pressure;Samples;Min_cycle;Max_cycle;Signal;HPM_P1;HPM_P2
2022/04/13 00:02:22;;;;;;;18.80;13.00;;;;;;;6.84;56.31;100017.91;5010337;28;20126;-82
2022/04/13 00:04:47;;;;;;;17.83;12.65;;;;;;;6.72;56.84;100000.94;5010093;28;20521;-82
2022/04/13 00:07:13;;;;;;;21.08;13.15;;;;;;;6.74;57.04;100015.56;4993802;28;20486;-82
2022/04/13 00:09:38;;;;;;;22.92;13.95;;;;;;;6.70;57.13;100010.47;5010133;28;20033;-82
2022/04/13 00:12:05;;;;;;;21.13;13.57;;;;;;;6.72;57.14;100012.13;5009878;28;20081;-83
2022/04/13 00:14:31;;;;;;;19.90;13.93;;;;;;;6.66;57.42;99998.50;5010114;28;20037;-83
2022/04/13 00:16:56;;;;;;;23.15;13.82;;;;;;;6.67;57.83;99995.03;5009810;28;20042;-81
2022/04/13 00:19:22;;;;;;;24.40;14.82;;;;;;;6.59;57.70;99987.44;5010222;28;20042;-80
2022/04/13 00:21:48;;;;;;;23.52;13.70;;;;;;;6.66;57.78;100001.09;5009829;28;20528;-80
2022/04/13 00:24:13;;;;;;;24.25;13.75;;;;;;;6.66;57.74;99996.78;5055841;28;20389;-81
2022/04/13 00:26:39;;;;;;;20.88;14.43;;;;;;;6.55;58.23;99983.25;5072134;28;20115;-82
2022/04/13 00:29:05;;;;;;;22.30;14.35;;;;;;;6.62;58.01;99989.97;5071920;28;20059;-82
2022/04/13 00:31:31;;;;;;;26.35;15.68;;;;;;;6.62;58.37;99989.13;5054026;28;20028;-81
2022/04/13 00:33:56;;;;;;;23.02;13.90;;;;;;;6.60;58.73;99994.31;5071805;28;20052;-81
2022/04/13 00:36:22;;;;;;;24.40;14.35;;;;;;;6.53;58.97;99991.91;5071895;28;20028;-81
2022/04/13 00:38:47;;;;;;;22.73;14.60;;;;;;;6.58;58.99;99995.25;5071576;28;20021;-81
2022/04/13 00:41:13;;;;;;;21.02;14.25;;;;;;;6.60;59.18;99986.56;5072019;28;20021;-81
2022/04/13 00:43:38;;;;;;;21.73;14.18;;;;;;;6.48;59.14;99981.69;5053993;28;20021;-79
2022/04/13 00:46:04;;;;;;;25.88;15.65;;;;;;;6.57;59.04;99998.72;5053637;28;20070;-80
2022/04/13 00:48:32;;;;;;;22.67;15.20;;;;;;;6.60;59.41;100014.19;5071805;28;20365;-81
2022/04/13 00:50:58;;;;;;;23.58;14.88;;;;;;;6.50;59.36;99996.28;5071630;28;20039;-80
2022/04/13 00:53:25;;;;;;;24.20;16.02;;;;;;;6.49;59.89;100001.53;5053710;28;20056;-80
2022/04/13 00:55:57;;;;;;;23.30;15.27;;;;;;;6.43;60.01;99997.31;5071677;28;20619;-80
2022/04/13 00:58:26;;;;;;;26.10;16.38;;;;;;;6.45;59.87;99989.53;5053799;28;20055;-81
2022/04/13 01:00:53;;;;;;;28.52;16.48;;;;;;;6.46;59.96;99996.41;5071586;28;20024;-80
2022/04/13 01:03:21;;;;;;;26.23;16.42;;;;;;;6.49;59.81;100012.72;5071689;28;20059;-81
2022/04/13 01:05:47;;;;;;;28.55;16.25;;;;;;;6.45;59.86;100002.47;5053459;28;20082;-80
2022/04/13 01:08:17;;;;;;;23.60;14.75;;;;;;;6.50;60.12;100009.22;5053705;28;20032;-81
2022/04/13 01:10:45;;;;;;;26.80;16.67;;;;;;;6.41;60.19;99988.75;5053653;28;20028;-81
2022/04/13 01:13:11;;;;;;;26.48;16.80;;;;;;;6.36;60.29;99982.84;5071409;28;20029;-79
2022/04/13 01:15:37;;;;;;;31.92;17.30;;;;;;;6.46;60.07;99999.84;5053415;28;20388;-79
2022/04/13 01:18:03;;;;;;;23.90;15.27;;;;;;;6.43;60.06;100006.81;5053321;28;20074;-79
2022/04/13 01:20:28;;;;;;;28.85;17.67;;;;;;;6.40;60.37;99997.38;5053371;28;20029;-79
2022/04/13 01:22:53;;;;;;;27.48;16.15;;;;;;;6.40;60.24;99997.38;5071397;28;20112;-81
2022/04/13 01:25:19;;;;;;;25.00;16.63;;;;;;;6.29;60.75;99994.22;5053546;28;20077;-82
2022/04/13 01:27:44;;;;;;;25.65;17.08;;;;;;;6.30;60.87;99982.13;5071528;28;20082;-82
2022/04/13 01:30:12;;;;;;;25.15;16.42;;;;;;;6.12;61.02;99962.75;5053238;28;20060;-81
2022/04/13 01:32:38;;;;;;;28.45;17.52;;;;;;;6.24;61.13;99985.72;5071680;28;20096;-80
2022/04/13 01:35:06;;;;;;;25.25;16.50;;;;;;;6.14;60.93;99974.72;5072156;28;20105;-82
2022/04/13 01:37:32;;;;;;;24.58;17.05;;;;;;;6.16;61.04;99977.28;5075164;28;20031;-82
2022/04/13 01:39:57;;;;;;;29.80;18.58;;;;;;;6.10;61.67;99970.50;5074850;28;20028;-83
2022/04/13 01:42:23;;;;;;;28.00;18.50;;;;;;;6.13;61.58;99985.97;5075359;28;20031;-81
2022/04/13 01:44:48;;;;;;;31.33;19.35;;;;;;;6.08;61.90;99990.41;5074917;28;20028;-80
2022/04/13 01:47:14;;;;;;;34.45;19.67;;;;;;;6.10;62.03;100004.13;5056715;28;20024;-81
2022/04/13 01:49:40;;;;;;;37.30;21.05;;;;;;;6.06;62.39;99996.47;5074751;28;20029;-82
2022/04/13 01:52:07;;;;;;;30.38;17.77;;;;;;;6.01;62.54;99991.41;5056590;28;20157;-82
2022/04/13 01:54:33;;;;;;;28.65;16.98;;;;;;;5.90;62.77;99977.84;5074959;28;20044;-82
2022/04/13 01:56:59;;;;;;;33.40;18.52;;;;;;;6.00;62.74;99993.16;5056566;28;20021;-83
2022/04/13 01:59:25;;;;;;;28.80;17.33;;;;;;;5.93;62.65;99986.41;5074697;28;20028;-82
2022/04/13 02:01:50;;;;;;;28.40;18.38;;;;;;;5.98;63.07;100000.09;5056673;28;20029;-81
2022/04/13 02:04:21;;;;;;;28.45;18.10;;;;;;;5.92;63.00;99994.22;5056650;28;20094;-82
2022/04/13 02:06:48;;;;;;;26.30;17.38;;;;;;;5.80;63.25;99966.84;5074631;28;20033;-82
2022/04/13 02:09:14;;;;;;;27.25;18.35;;;;;;;5.89;63.20;99991.66;5056620;28;20369;-82
2022/04/13 02:11:40;;;;;;;27.50;16.67;;;;;;;5.85;63.62;99990.00;5074771;28;20028;-82
2022/04/13 02:14:06;;;;;;;25.45;16.58;;;;;;;5.68;63.73;99969.72;5074218;28;20105;-82
2022/04/13 02:16:32;;;;;;;29.15;18.13;;;;;;;5.80;63.55;99997.88;5074299;28;20059;-81
2022/04/13 02:18:57;;;;;;;30.13;17.13;;;;;;;5.75;63.96;99995.38;5074031;28;20132;-82
2022/04/13 02:21:22;;;;;;;26.63;18.05;;;;;;;5.76;64.24;100004.00;5011916;28;20038;-81
2022/04/13 02:23:48;;;;;;;26.63;17.27;;;;;;;5.71;64.13;99993.75;5012073;28;20038;-83
2022/04/13 02:26:13;;;;;;;27.42;17.08;;;;;;;5.73;64.41;100004.94;5011749;28;20048;-85
2022/04/13 02:28:39;;;;;;;26.40;17.95;;;;;;;5.62;64.33;99993.09;4995600;28;20026;-84
2022/04/13 02:31:04;;;;;;;25.05;17.83;;;;;;;5.64;64.50;100001.66;5011586;28;20070;-84
2022/04/13 02:33:33;;;;;;;30.58;17.50;;;;;;;5.58;64.71;100001.81;5011964;28;20060;-84
2022/04/13 02:35:58;;;;;;;28.02;18.65;;;;;;;5.66;64.74;100012.84;5011604;28;20034;-84
2022/04/13 02:38:24;;;;;;;28.75;18.20;;;;;;;5.56;64.50;99998.38;4995468;28;20036;-84
2022/04/13 02:40:50;;;;;;;28.13;17.65;;;;;;;5.63;64.92;100010.31;5011639;28;20029;-84
2022/04/13 02:43:16;;;;;;;27.75;18.70;;;;;;;5.55;65.04;100001.84;5011442;28;20421;-84
2022/04/13 02:45:41;;;;;;;28.65;18.90;;;;;;;5.50;64.75;100000.22;5011561;28;20029;-84
2022/04/13 02:48:07;;;;;;;33.13;19.42;;;;;;;5.57;64.97;100000.94;5011261;28;20038;-84
2022/04/13 02:50:33;;;;;;;30.50;19.40;;;;;;;5.57;64.81;99998.38;5011635;28;20037;-84
2022/04/13 02:52:59;;;;;;;28.92;18.67;;;;;;;5.57;65.09;100000.09;5058153;28;20049;-84
2022/04/13 02:55:25;;;;;;;34.30;20.83;;;;;;;5.59;65.18;99999.19;5073639;28;20032;-84
2022/04/13 02:57:51;;;;;;;26.42;17.40;;;;;;;5.60;64.96;100002.59;5073637;28;20553;-84
2022/04/13 03:00:17;;;;;;;36.78;18.73;;;;;;;5.49;64.92;99977.84;5055298;28;20033;-84
2022/04/13 03:02:44;;;;;;;28.02;17.75;;;;;;;5.50;65.14;99989.88;5055465;28;20021;-84
2022/04/13 03:05:10;;;;;;;23.48;18.00;;;;;;;5.46;65.36;99985.66;5073192;28;20375;-84
2022/04/13 03:07:36;;;;;;;27.27;17.23;;;;;;;5.55;65.23;100004.44;5073546;28;20024;-84
2022/04/13 03:10:03;;;;;;;28.23;18.63;;;;;;;5.50;65.21;100012.28;5073122;28;20116;-84
2022/04/13 03:12:28;;;;;;;27.38;18.60;;;;;;;5.56;65.26;100013.88;5055195;28;20020;-84
2022/04/13 03:14:54;;;;;;;31.73;19.35;;;;;;;5.48;65.30;100003.72;5055276;28;20020;-85
2022/04/13 03:17:19;;;;;;;29.70;18.83;;;;;;;5.40;65.19;99992.69;5054952;28;20032;-85
2022/04/13 03:19:44;;;;;;;27.20;19.38;;;;;;;5.52;65.65;100015.72;5055572;28;20033;-85
2022/04/13 03:22:10;;;;;;;28.13;19.13;;;;;;;5.50;65.47;100015.72;5055116;28;20387;-85
2022/04/13 03:24:35;;;;;;;32.63;21.38;;;;;;;5.39;65.68;99998.72;5055273;28;20066;-85
2022/04/13 03:27:01;;;;;;;28.73;18.70;;;;;;;5.44;65.81;100017.59;5054795;28;20028;-85
2022/04/13 03:29:26;;;;;;;27.05;18.98;;;;;;;5.41;66.09;100017.63;5054977;28;20158;-84
2022/04/13 03:31:52;;;;;;;28.42;18.77;;;;;;;5.37;66.08;100018.59;5055238;28;20087;-84
2022/04/13 03:34:20;;;;;;;29.50;19.48;;;;;;;5.31;66.32;100003.19;5054841;28;20115;-85
2022/04/13 03:36:50;;;;;;;34.67;21.80;;;;;;;5.38;66.22;100028.88;5054933;28;20016;-84
2022/04/13 03:39:16;;;;;;;31.35;20.67;;;;;;;5.35;66.34;100021.22;5072600;28;20028;-86
2022/04/13 03:41:42;;;;;;;37.63;21.35;;;;;;;5.35;66.27;100021.22;5054787;28;20061;-86
2022/04/13 03:44:08;;;;;;;36.25;21.15;;;;;;;5.33;66.60;100025.53;5054389;28;20024;-85
2022/04/13 03:46:34;;;;;;;30.45;19.73;;;;;;;5.33;66.75;100025.53;5054917;28;20038;-85
2022/04/13 03:48:59;;;;;;;30.65;21.08;;;;;;;5.20;66.74;100006.84;5054588;28;20033;-85
2022/04/13 03:51:26;;;;;;;27.67;18.85;;;;;;;5.34;67.11;100032.41;5054712;28;20043;-81
2022/04/13 03:53:52;;;;;;;31.42;19.77;;;;;;;5.38;67.72;100028.88;5054175;28;20047;-80
2022/04/13 03:56:17;;;;;;;31.75;20.15;;;;;;;5.45;67.53;100029.63;5054156;28;20024;-80
2022/04/13 03:58:43;;;;;;;29.77;19.08;;;;;;;5.42;67.24;100020.19;5053815;28;20036;-80
2022/04/13 04:01:11;;;;;;;28.90;18.70;;;;;;;5.47;66.48;100030.41;5072180;28;20036;-80
2022/04/13 04:03:37;;;;;;;32.80;19.42;;;;;;;5.39;66.38;100017.66;5072122;28;20028;-80
2022/04/13 04:06:03;;;;;;;31.23;21.40;;;;;;;5.46;66.46;100042.50;5053712;28;20054;-79
2022/04/13 04:08:29;;;;;;;32.33;20.30;;;;;;;5.50;66.30;100033.81;5071949;28;20044;-79
2022/04/13 04:10:55;;;;;;;57.53;30.13;;;;;;;5.44;66.31;100028.78;5054051;28;20024;-80
2022/04/13 04:13:21;;;;;;;65.15;35.75;;;;;;;5.41;66.30;100028.81;5071903;28;20118;-80
2022/04/13 04:15:46;;;;;;;35.67;23.23;;;;;;;5.40;66.29;100026.28;5054069;28;20060;-79
2022/04/13 04:18:12;;;;;;;35.95;21.90;;;;;;;5.44;66.63;100030.50;5053777;28;20391;-80
2022/04/13 04:20:37;;;;;;;30.73;20.48;;;;;;;5.49;66.25;100032.09;5071970;28;20029;-80
2022/04/13 04:23:03;;;;;;;27.55;18.83;;;;;;;5.48;65.96;100026.97;5053568;28;20028;-80
2022/04/13 04:25:29;;;;;;;29.27;19.27;;;;;;;5.49;66.06;100037.28;5071824;28;20154;-80
2022/04/13 04:27:54;;;;;;;126.10;58.20;;;;;;;5.54;65.69;100034.59;5071684;28;20395;-80
2022/04/13 04:30:19;;;;;;;34.45;22.40;;;;;;;5.48;65.61;100025.25;5071832;28;20036;-80
2022/04/13 04:32:45;;;;;;;33.30;19.83;;;;;;;5.61;65.35;100038.78;5072461;28;20082;-84
2022/04/13 04:35:10;;;;;;;34.60;23.20;;;;;;;5.63;65.25;100039.56;5053708;28;20021;-84
2022/04/13 04:37:36;;;;;;;37.15;24.10;;;;;;;5.64;65.30;100046.44;5071950;28;20094;-83
2022/04/13 04:40:01;;;;;;;36.10;23.75;;;;;;;5.64;65.32;100037.84;5053629;28;20066;-84
2022/04/13 04:42:27;;;;;;;35.20;23.00;;;;;;;5.66;65.06;100036.94;5071727;28;20038;-83
2022/04/13 04:44:59;;;;;;;32.00;20.48;;;;;;;5.63;64.99;100024.06;5053952;28;20418;-83
2022/04/13 04:47:25;;;;;;;32.08;22.60;;;;;;;5.71;64.83;100036.84;5071668;28;20032;-82
2022/04/13 04:49:50;;;;;;;35.80;22.65;;;;;;;5.78;64.51;100022.06;5071822;28;20036;-82
2022/04/13 04:52:16;;;;;;;34.80;21.75;;;;;;;5.92;63.90;100028.66;5071638;28;20037;-86
2022/04/13 04:54:41;;;;;;;31.40;21.67;;;;;;;6.03;64.05;100050.88;5053748;28;20050;-86
2022/04/13 04:57:08;;;;;;;34.95;22.83;;;;;;;6.16;63.32;100045.38;5053233;28;20024;-85
2022/04/13 04:59:34;;;;;;;35.40;21.30;;;;;;;6.28;62.87;100041.69;5009282;28;20092;-84
2022/04/13 05:02:00;;;;;;;30.98;21.45;;;;;;;6.52;62.71;100045.41;4993041;28;20448;-85
2022/04/13 05:04:26;;;;;;;29.25;21.50;;;;;;;6.79;61.50;100050.84;4992858;28;20038;-85
2022/04/13 05:06:51;;;;;;;31.42;21.58;;;;;;;7.07;60.74;100045.78;5009518;28;20072;-84
2022/04/13 05:09:22;;;;;;;34.05;21.75;;;;;;;7.53;59.46;100041.97;5009138;28;20501;-84
2022/04/13 05:11:47;;;;;;;30.00;21.05;;;;;;;8.15;56.92;100044.47;5013434;28;20103;-84
2022/04/13 05:14:12;;;;;;;31.33;21.10;;;;;;;9.00;54.21;100046.09;5012959;28;20485;-84
2022/04/13 05:16:38;;;;;;;35.42;22.63;;;;;;;10.16;50.69;100041.06;5013257;28;20075;-85
2022/04/13 05:19:03;;;;;;;31.27;21.88;;;;;;;11.04;47.87;100044.47;4996726;28;20153;-85
2022/04/13 05:21:29;;;;;;;30.60;21.23;;;;;;;11.12;46.41;100042.34;5013150;28;20446;-85
2022/04/13 05:23:54;;;;;;;35.55;21.77;;;;;;;11.05;46.91;100048.75;5013063;28;20022;-85
2022/04/13 05:26:19;;;;;;;29.05;19.95;;;;;;;11.21;46.39;100047.19;5013138;28;20088;-85
2022/04/13 05:28:47;;;;;;;24.60;18.52;;;;;;;11.34;45.65;100044.91;4996622;28;20418;-85
2022/04/13 05:31:13;;;;;;;28.80;20.30;;;;;;;11.57;44.45;100048.25;5047718;28;20040;-85
2022/04/13 05:33:38;;;;;;;31.50;21.13;;;;;;;12.27;43.72;100016.34;5057215;28;20058;-83
2022/04/13 05:36:04;;;;;;;29.60;20.63;;;;;;;13.26;41.16;100038.50;5057092;28;20028;-84
2022/04/13 05:38:29;;;;;;;31.85;21.40;;;;;;;13.27;39.77;100030.56;5056906;28;20029;-84
2022/04/13 05:40:55;;;;;;;27.05;20.38;;;;;;;12.84;41.12;100039.69;5056928;28;20025;-84
2022/04/13 05:43:21;;;;;;;30.40;21.00;;;;;;;12.72;41.18;100041.16;5056806;28;20026;-84
2022/04/13 05:45:46;;;;;;;35.10;21.27;;;;;;;12.43;41.66;100046.03;5057147;28;20035;-84
2022/04/13 05:48:11;;;;;;;34.20;22.15;;;;;;;12.50;41.53;100043.97;5056788;28;20032;-84
2022/04/13 05:50:37;;;;;;;30.80;21.15;;;;;;;13.11;41.07;100042.72;5056919;28;20032;-84
2022/04/13 05:53:03;;;;;;;33.55;22.25;;;;;;;14.42;38.34;100045.34;5012163;28;20514;-84
2022/04/13 05:55:28;;;;;;;28.45;20.30;;;;;;;14.92;37.10;100031.13;5012130;28;20494;-84
2022/04/13 05:57:54;;;;;;;33.08;20.33;;;;;;;14.57;37.28;100027.91;5012658;28;20639;-83
2022/04/13 06:00:19;;;;;;;29.27;20.38;;;;;;;14.45;38.09;100038.16;5012266;28;20497;-82
2022/04/13 06:02:45;;;;;;;29.23;20.77;;;;;;;14.41;37.52;100041.00;5012440;28;20049;-83
2022/04/13 06:05:11;;;;;;;26.42;19.77;;;;;;;14.60;37.49;100031.19;5012315;28;20034;-83
2022/04/13 06:07:37;;;;;;;28.25;20.90;;;;;;;16.01;34.89;100027.16;4995905;28;20042;-82
2022/04/13 06:10:03;;;;;;;32.13;20.88;;;;;;;17.01;33.34;100045.22;5012217;28;20049;-83
2022/04/13 06:12:29;;;;;;;29.67;20.50;;;;;;;16.50;33.37;100032.75;5012097;28;20065;-83
2022/04/13 06:15:06;;;;;;;34.58;21.40;;;;;;;16.37;33.29;100042.38;5012402;28;20030;-83
2022/04/13 06:17:32;;;;;;;29.58;20.90;;;;;;;15.77;33.84;100050.56;5011772;28;20029;-82
2022/04/13 06:19:57;;;;;;;27.10;21.02;;;;;;;15.95;33.87;100042.38;5012028;28;20076;-82
2022/04/13 06:22:22;;;;;;;30.73;20.48;;;;;;;17.77;32.11;100045.28;5011340;28;20113;-82
2022/04/13 06:24:51;;;;;;;30.23;19.33;;;;;;;18.38;31.04;100032.16;5062816;28;20094;-82
2022/04/13 06:27:20;;;;;;;29.58;20.90;;;;;;;17.98;30.62;100047.34;5074151;28;20036;-82
2022/04/13 06:29:46;;;;;;;27.10;19.70;;;;;;;17.41;31.54;100049.50;5056214;28;20046;-82
2022/04/13 06:32:12;;;;;;;28.92;18.90;;;;;;;17.42;31.98;100037.16;5011566;28;20069;-84
2022/04/13 06:34:38;;;;;;;33.15;19.80;;;;;;;19.14;29.52;100059.94;5011600;28;20034;-80
2022/04/13 06:37:04;;;;;;;26.38;17.92;;;;;;;20.48;27.86;100055.63;5011749;28;20555;-85
2022/04/13 06:39:30;;;;;;;23.52;17.83;;;;;;;20.05;28.13;100053.78;5011908;28;20037;-81
2022/04/13 06:41:55;;;;;;;28.13;18.33;;;;;;;19.90;28.72;100054.06;5011661;28;20145;-82
2022/04/13 06:44:21;;;;;;;28.60;19.48;;;;;;;20.06;28.43;100051.03;4972274;28;20035;-82
2022/04/13 06:46:46;;;;;;;25.95;18.80;;;;;;;21.61;26.63;100062.91;4972474;28;20051;-80
2022/04/13 06:49:12;;;;;;;26.63;19.35;;;;;;;23.30;24.25;100061.13;4972201;28;20094;-80
2022/04/13 06:51:37;;;;;;;27.83;18.30;;;;;;;24.18;22.69;100051.00;4972277;28;20039;-81
2022/04/13 06:54:03;;;;;;;25.50;18.17;;;;;;;24.34;22.20;100070.66;4972020;28;20551;-81
2022/04/13 06:56:28;;;;;;;24.95;17.92;;;;;;;23.90;22.70;100072.31;4972264;28;20030;-78
2022/04/13 06:58:53;;;;;;;26.00;17.52;;;;;;;22.24;23.92;100070.72;4972555;28;20084;-78
2022/04/13 07:01:19;;;;;;;22.02;15.77;;;;;;;23.55;24.58;100059.66;4972280;28;20022;-78
2022/04/13 07:03:44;;;;;;;25.90;16.63;;;;;;;26.46;21.04;100075.84;5000186;28;20063;-79
2022/04/13 07:06:09;;;;;;;24.70;16.33;;;;;;;27.99;19.38;100081.28;4994850;28;20034;-79
2022/04/13 07:08:35;;;;;;;23.77;16.10;;;;;;;30.04;17.41;100081.34;5010999;28;20033;-79
2022/04/13 07:11:00;;;;;;;21.33;16.25;;;;;;;31.28;16.38;100070.44;4994790;28;20088;-80
2022/04/13 07:13:25;;;;;;;28.98;17.35;;;;;;;32.40;15.50;100082.91;4994543;28;20576;-80
2022/04/13 07:15:52;;;;;;;22.23;16.95;;;;;;;32.42;14.86;100078.97;5055180;28;20039;-80
2022/04/13 07:18:18;;;;;;;24.90;17.80;;;;;;;32.08;14.88;100070.97;5072965;28;20369;-79
2022/04/13 07:20:44;;;;;;;23.48;17.30;;;;;;;31.30;15.04;100065.72;5073097;28;20028;-79
2022/04/13 07:23:09;;;;;;;23.50;15.45;;;;;;;31.66;15.03;100062.84;5055421;28;20369;-79
2022/04/13 07:25:35;;;;;;;21.67;15.60;;;;;;;32.70;14.48;100081.53;5072710;28;20020;-81
2022/04/13 07:28:00;;;;;;;21.20;16.52;;;;;;;32.77;14.29;100082.34;5072865;28;20025;-80
2022/04/13 07:30:26;;;;;;;20.95;16.88;;;;;;;33.07;13.86;100082.00;5072680;28;20043;-80
2022/04/13 07:32:55;;;;;;;20.95;15.82;;;;;;;32.80;14.45;100070.34;5071986;28;20020;-79
2022/04/13 07:35:21;;;;;;;19.10;15.75;;;;;;;33.69;13.70;100071.78;5072493;28;20020;-80
2022/04/13 07:37:47;;;;;;;23.98;16.75;;;;;;;33.73;13.60;100078.41;5072847;28;20032;-80
2022/04/13 07:40:14;;;;;;;22.98;14.73;;;;;;;33.78;13.59;100076.72;5056905;28;20020;-80
2022/04/13 07:42:40;;;;;;;21.83;15.02;;;;;;;34.03;13.38;100072.53;5075272;28;20044;-80
2022/04/13 07:45:07;;;;;;;21.40;15.13;;;;;;;33.89;13.26;100066.31;5054534;28;20384;-79
2022/04/13 07:47:33;;;;;;;17.38;14.02;;;;;;;34.60;13.22;100065.41;5010056;28;20053;-79
2022/04/13 07:49:58;;;;;;;19.83;15.15;;;;;;;34.75;13.12;100077.53;5010346;28;20038;-80
2022/04/13 07:52:24;;;;;;;22.05;15.73;;;;;;;35.37;12.73;100074.97;5009882;28;20213;-81
2022/04/13 07:54:50;;;;;;;18.63;14.57;;;;;;;35.24;12.46;100064.28;5010240;28;20502;-80
2022/04/13 07:57:18;;;;;;;20.70;15.02;;;;;;;34.42;12.81;100079.59;5009716;28;20041;-80
2022/04/13 07:59:43;;;;;;;20.60;15.85;;;;;;;35.16;12.48;100084.34;5010167;28;20038;-80
2022/04/13 08:02:09;;;;;;;22.25;15.63;;;;;;;34.60;12.99;100073.50;4993726;28;20524;-80
2022/04/13 08:04:35;;;;;;;20.08;15.85;;;;;;;34.28;13.28;100067.22;4993531;28;20385;-80
2022/04/13 08:07:01;;;;;;;23.23;15.88;;;;;;;31.50;14.75;100063.16;5010142;28;20034;-80
2022/04/13 08:09:26;;;;;;;23.33;16.38;;;;;;;27.93;17.11;100081.13;5009680;28;20034;-80
2022/04/13 08:11:52;;;;;;;22.67;16.35;;;;;;;24.45;19.78;100069.66;5010140;28;20111;-79
2022/04/13 08:14:22;;;;;;;19.70;15.75;;;;;;;22.61;22.04;100070.09;5009475;28;20362;-79
2022/04/13 08:16:48;;;;;;;24.70;16.73;;;;;;;21.26;24.23;100070.34;4993310;28;20033;-81
2022/04/13 08:19:13;;;;;;;22.15;16.67;;;;;;;20.14;26.06;100079.50;5009476;28;20112;-84
2022/04/13 08:21:38;;;;;;;24.73;16.58;;;;;;;19.15;27.29;100073.03;5009865;28;20072;-82
2022/04/13 08:24:05;;;;;;;24.95;18.90;;;;;;;18.55;28.31;100078.41;5017217;28;20036;-83
2022/04/13 08:26:30;;;;;;;24.40;17.73;;;;;;;18.12;29.49;100073.59;5053647;28;20391;-85
2022/04/13 08:28:56;;;;;;;28.17;17.05;;;;;;;17.76;29.93;100067.31;5053769;28;20024;-86
2022/04/13 08:31:21;;;;;;;26.73;18.08;;;;;;;17.45;30.82;100061.50;5071268;28;20028;-86
2022/04/13 08:33:46;;;;;;;21.42;16.27;;;;;;;17.21;31.14;100056.09;5053749;28;20392;-86
2022/04/13 08:36:13;;;;;;;24.02;16.63;;;;;;;17.17;31.58;100049.38;5053967;28;20024;-86
2022/04/13 08:38:38;;;;;;;25.55;17.35;;;;;;;17.03;31.54;100052.09;5053325;28;20056;-85
2022/04/13 08:41:16;;;;;;;24.70;15.68;;;;;;;16.91;31.63;100058.16;5053896;28;20063;-87
2022/04/13 08:44:34;;;;;;;24.50;16.73;;;;;;;16.66;31.71;100069.41;5071650;28;20036;-87
2022/04/13 08:47:05;;;;;;;23.83;15.80;;;;;;;16.60;32.20;100067.16;4970654;28;20031;-87
2022/04/13 08:49:34;;;;;;;22.50;17.10;;;;;;;16.55;32.46;100054.31;4954247;28;20093;-87
2022/04/13 08:52:03;;;;;;;24.10;15.82;;;;;;;16.54;33.06;100047.38;4954106;28;20031;-87
2022/04/13 08:54:36;;;;;;;22.15;14.65;;;;;;;16.61;32.11;100056.56;4970317;28;20498;-87
2022/04/13 08:57:04;;;;;;;23.80;15.10;;;;;;;16.45;32.29;100051.47;4970523;28;20578;-88
2022/04/13 08:59:53;;;;;;;21.75;16.10;;;;;;;16.40;33.04;100060.59;4954254;28;20035;-87
2022/04/13 09:02:50;;;;;;;21.83;14.82;;;;;;;16.33;33.06;100049.63;4954179;28;20050;-86
2022/04/13 09:05:24;;;;;;;22.92;15.55;;;;;;;16.13;32.64;100065.81;4954403;28;20031;-87
2022/04/13 09:08:02;;;;;;;25.77;15.90;;;;;;;15.95;33.41;100063.38;4970327;28;20039;-88
2022/04/13 09:10:29;;;;;;;20.63;14.82;;;;;;;15.90;33.94;100067.25;4981429;28;20477;-84
2022/04/13 09:12:56;;;;;;;24.45;15.25;;;;;;;15.87;33.39;100062.19;4973707;28;20080;-86
2022/04/13 09:15:23;;;;;;;22.17;14.93;;;;;;;15.72;33.56;100061.34;4973272;28;20534;-87
2022/04/13 09:17:49;;;;;;;22.00;13.70;;;;;;;15.67;33.27;100056.38;4965283;28;20031;-86
2022/04/13 09:20:15;;;;;;;26.10;15.20;;;;;;;15.67;33.88;100058.16;4985651;28;20045;-86
2022/04/13 09:22:42;;;;;;;19.25;14.05;;;;;;;15.68;34.18;100062.47;5028347;28;20046;-86
2022/04/13 09:25:09;;;;;;;21.50;15.18;;;;;;;15.78;34.51;100068.00;5012605;28;20030;-90
2022/04/13 09:27:36;;;;;;;20.80;14.68;;;;;;;15.82;35.09;100072.13;5047973;28;20562;-90
2022/04/13 09:30:02;;;;;;;20.85;14.63;;;;;;;15.82;34.38;100072.97;5032213;28;20064;-86
2022/04/13 09:32:29;;;;;;;22.55;14.80;;;;;;;15.73;34.26;100056.94;5048537;28;20033;-86
2022/04/13 09:34:55;;;;;;;21.63;14.80;;;;;;;15.73;34.72;100072.69;5032165;28;20029;-87
2022/04/13 09:37:22;;;;;;;21.13;14.55;;;;;;;15.80;34.69;100072.25;5031749;28;20223;-87
2022/04/13 09:39:48;;;;;;;20.25;13.98;;;;;;;15.91;34.84;100061.88;5032232;28;20575;-84
2022/04/13 09:42:14;;;;;;;17.17;13.68;;;;;;;16.11;34.67;100057.19;5032098;28;20087;-86
2022/04/13 09:44:43;;;;;;;23.15;13.73;;;;;;;16.27;34.58;100065.78;5029635;28;20029;-89
2022/04/13 09:47:12;;;;;;;24.77;14.32;;;;;;;16.12;34.17;100064.13;5012219;28;20041;-86
2022/04/13 09:49:50;;;;;;;23.38;15.13;;;;;;;16.13;34.10;100057.91;5028540;28;20034;-87
2022/04/13 09:52:16;;;;;;;20.85;14.32;;;;;;;16.10;34.11;100060.75;5012014;28;20072;-87
2022/04/13 09:54:48;;;;;;;22.55;15.00;;;;;;;16.10;33.69;100042.38;5011989;28;20469;-85
2022/04/13 09:57:23;;;;;;;18.55;13.13;;;;;;;16.09;33.94;100048.53;5014892;28;20033;-86
2022/04/13 09:59:56;;;;;;;22.42;14.60;;;;;;;16.12;34.43;100035.22;5027186;28;20040;-85
2022/04/13 10:02:41;;;;;;;18.05;13.73;;;;;;;16.22;33.65;100041.56;5051917;28;20064;-84
2022/04/13 10:05:20;;;;;;;18.42;13.05;;;;;;;16.27;33.54;100036.88;5052066;28;20064;-85
2022/04/13 10:08:01;;;;;;;20.25;12.95;;;;;;;16.45;33.09;100040.94;5051950;28;20061;-84
2022/04/13 10:10:28;;;;;;;;;;;;;;;16.39;33.23;100040.47;5052249;28;20044;-83
2022/04/13 10:12:53;;;;;;;19.17;12.73;;;;;;;16.21;32.63;100030.22;5052023;28;19959;-83
2022/04/13 10:15:19;;;;;;;18.63;12.38;;;;;;;16.28;32.23;100035.09;5035071;28;20091;-82
2022/04/13 10:17:44;;;;;;;17.35;11.38;;;;;;;16.39;31.88;100043.09;5031553;28;20030;-82
2022/04/13 10:20:10;;;;;;;15.65;10.57;;;;;;;16.47;31.80;100030.31;5031898;28;20263;-84
2022/04/13 10:23:01;;;;;;;15.23;11.90;;;;;;;16.61;31.72;100026.81;5031525;28;20049;-84
2022/04/13 10:25:29;;;;;;;;;;;;;;;16.69;32.36;100035.88;5031869;28;20034;-85
2022/04/13 10:27:59;;;;;;;21.20;10.90;;;;;;;16.65;32.05;100020.41;5015111;28;19939;-84
2022/04/13 10:30:33;;;;;;;13.43;10.30;;;;;;;16.73;30.84;100031.28;5041835;28;20032;-85
2022/04/13 10:33:01;;;;;;;12.23;8.75;;;;;;;16.73;29.52;100027.78;5074262;28;20028;-84
2022/04/13 10:35:28;;;;;;;14.07;8.60;;;;;;;16.76;29.04;100010.03;5073879;28;20033;-84
2022/04/13 10:37:55;;;;;;;14.23;10.50;;;;;;;16.95;30.38;100021.03;5074038;28;20104;-84
2022/04/13 10:40:25;;;;;;;15.25;10.93;;;;;;;16.99;30.88;100024.28;5073993;28;20656;-84
2022/04/13 10:42:52;;;;;;;22.07;13.10;;;;;;;16.85;29.53;100004.16;5073943;28;20024;-83
2022/04/13 10:45:18;;;;;;;15.52;10.57;;;;;;;16.96;29.20;100024.50;5074084;28;20273;-84
2022/04/13 10:47:58;;;;;;;16.77;11.05;;;;;;;16.83;28.96;100016.56;5073800;28;20032;-84
2022/04/13 10:50:32;;;;;;;15.75;9.57;;;;;;;16.84;28.87;100017.41;5055918;28;20024;-85
2022/04/13 10:53:06;;;;;;;14.73;10.18;;;;;;;16.89;28.39;100031.09;5073759;28;20044;-84
2022/04/13 10:55:34;;;;;;;16.70;8.85;;;;;;;16.82;28.66;100007.00;5055380;28;20036;-84
2022/04/13 10:58:37;;;;;;;11.90;8.38;;;;;;;17.03;29.55;100019.66;5073583;28;20052;-84
2022/04/13 11:01:11;;;;;;;14.95;10.30;;;;;;;17.13;29.86;100012.81;5073665;28;20021;-84
2022/04/13 11:03:38;;;;;;;15.60;10.73;;;;;;;17.19;29.44;100008.00;5073167;28;20028;-84
2022/04/13 11:06:08;;;;;;;14.90;9.43;;;;;;;17.28;28.64;100008.31;5055477;28;20024;-84
2022/04/13 11:08:50;;;;;;;16.77;10.43;;;;;;;17.25;28.33;100011.16;5073350;28;20046;-84
2022/04/13 11:11:18;;;;;;;16.80;10.10;;;;;;;17.11;28.81;99993.69;5055403;28;20039;-83
2022/04/13 11:13:51;;;;;;;15.50;11.05;;;;;;;17.23;28.84;100005.13;5073086;28;20028;-85
2022/04/13 11:16:20;;;;;;;15.93;10.95;;;;;;;17.38;28.41;100018.09;5055097;28;20028;-84